createdAt,value
2022-08-18T00:02:05.251Z,3.93
2022-08-18T00:04:49.066Z,4.00
2022-08-18T00:07:21.768Z,4.20
2022-08-18T00:09:51.878Z,4.70
2022-08-18T00:12:25.068Z,4.03
2022-08-18T00:14:54.670Z,3.40
2022-08-18T00:17:23.756Z,3.83
2022-08-18T00:19:52.224Z,4.10
2022-08-18T00:22:22.417Z,3.90
2022-08-18T00:24:55.025Z,4.27
2022-08-18T00:27:28.547Z,4.43
2022-08-18T00:29:59.734Z,4.43
2022-08-18T00:32:33.638Z,3.77
2022-08-18T00:35:08.498Z,4.10
2022-08-18T00:37:37.375Z,4.70
2022-08-18T00:40:10.741Z,4.70
2022-08-18T00:42:45.879Z,4.10
2022-08-18T00:45:21.378Z,4.50
2022-08-18T00:47:49.713Z,4.47
2022-08-18T00:50:23.138Z,4.63
2022-08-18T00:52:58.465Z,4.50
2022-08-18T00:55:30.045Z,4.60
2022-08-18T00:58:06.636Z,4.93
2022-08-18T01:00:36.269Z,5.00
2022-08-18T01:03:13.042Z,5.20
2022-08-18T01:05:49.368Z,5.20
2022-08-18T01:08:21.367Z,5.50
2022-08-18T01:11:01.718Z,5.23
2022-08-18T01:13:34.067Z,5.10
2022-08-18T01:16:23.997Z,5.33
2022-08-18T01:19:09.894Z,5.23
2022-08-18T01:21:53.738Z,5.30
2022-08-18T01:24:51.433Z,5.47
2022-08-18T01:27:19.224Z,6.07
2022-08-18T01:29:48.955Z,5.83
2022-08-18T01:32:20.447Z,5.47
2022-08-18T01:34:50.519Z,5.33
2022-08-18T01:37:21.535Z,5.57
2022-08-18T01:41:25.813Z,5.50
2022-08-18T01:42:43.385Z,6.50
2022-08-18T01:45:13.463Z,5.20
2022-08-18T01:47:57.995Z,5.87
2022-08-18T01:50:27.455Z,5.63
2022-08-18T01:52:55.831Z,6.70
2022-08-18T01:55:28.379Z,6.30
2022-08-18T01:57:57.150Z,6.10
2022-08-18T02:00:26.356Z,6.37
2022-08-18T02:03:00.240Z,5.57
2022-08-18T02:08:07.412Z,5.83
2022-08-18T02:10:37.678Z,6.43
2022-08-18T02:13:06.267Z,6.57
2022-08-18T02:15:34.851Z,6.00
2022-08-18T02:18:03.478Z,6.30
2022-08-18T02:20:32.298Z,6.40
2022-08-18T02:23:00.648Z,5.80
2022-08-18T02:25:28.996Z,6.10
2022-08-18T02:27:59.652Z,6.70
2022-08-18T02:30:28.008Z,6.07
2022-08-18T02:32:56.734Z,6.30
2022-08-18T02:35:25.050Z,6.53
2022-08-18T02:37:54.547Z,5.83
2022-08-18T02:40:23.150Z,6.13
2022-08-18T02:42:52.801Z,6.43
2022-08-18T02:45:23.704Z,6.97
2022-08-18T02:47:54.324Z,6.97
2022-08-18T02:50:23.002Z,7.03
2022-08-18T02:52:51.412Z,7.00
2022-08-18T02:55:20.129Z,6.60
2022-08-18T02:57:50.118Z,7.00
2022-08-18T03:00:22.796Z,6.93
2022-08-18T03:02:53.498Z,7.40
2022-08-18T03:05:21.844Z,7.33
2022-08-18T03:07:51.191Z,7.03
2022-08-18T03:10:31.520Z,7.30
2022-08-18T03:13:02.665Z,6.67
2022-08-18T03:15:32.691Z,7.37
2022-08-18T03:18:02.440Z,7.20
2022-08-18T03:20:31.611Z,7.07
2022-08-18T03:23:05.865Z,7.23
2022-08-18T03:25:45.394Z,6.87
2022-08-18T03:28:14.287Z,7.23
2022-08-18T03:30:44.503Z,6.90
2022-08-18T03:33:12.930Z,7.10
2022-08-18T03:35:42.059Z,8.10
2022-08-18T03:38:10.459Z,6.73
2022-08-18T03:40:39.333Z,6.90
2022-08-18T03:43:23.617Z,6.87
2022-08-18T03:46:01.876Z,7.00
2022-08-18T03:48:30.563Z,6.60
2022-08-18T03:51:06.770Z,7.07
2022-08-18T03:53:35.633Z,6.43
2022-08-18T03:56:09.451Z,7.03
2022-08-18T03:58:38.357Z,7.40
2022-08-18T04:01:08.154Z,7.50
2022-08-18T04:03:36.981Z,6.97
2022-08-18T04:06:08.667Z,8.13
2022-08-18T04:08:40.481Z,7.30
2022-08-18T04:11:08.943Z,6.90
2022-08-18T04:13:37.691Z,7.00
2022-08-18T04:16:08.392Z,7.83
2022-08-18T04:18:37.095Z,7.60
2022-08-18T04:21:08.784Z,7.20
2022-08-18T04:23:39.474Z,7.97
2022-08-18T04:26:19.355Z,7.47
2022-08-18T04:28:47.870Z,6.73
2022-08-18T04:31:19.446Z,7.17
2022-08-18T04:33:47.751Z,7.17
2022-08-18T04:36:20.717Z,7.57
2022-08-18T04:38:49.877Z,8.10
2022-08-18T04:41:18.527Z,7.87
2022-08-18T04:43:48.751Z,8.37
2022-08-18T04:46:18.472Z,7.97
2022-08-18T04:48:58.788Z,7.57
2022-08-18T04:52:37.209Z,7.37
2022-08-18T04:54:17.397Z,8.17
2022-08-18T04:56:45.811Z,7.87
2022-08-18T04:59:15.708Z,7.87
2022-08-18T05:01:47.781Z,7.80
2022-08-18T05:04:18.550Z,8.27
2022-08-18T05:06:47.899Z,7.33
2022-08-18T05:09:23.133Z,6.97
2022-08-18T05:11:52.234Z,8.07
2022-08-18T05:14:21.449Z,8.00
2022-08-18T05:16:52.012Z,8.37
2022-08-18T05:19:26.068Z,8.50
2022-08-18T05:21:59.621Z,8.70
2022-08-18T05:24:37.004Z,8.53
2022-08-18T05:27:08.155Z,8.23
2022-08-18T05:29:41.858Z,8.60
2022-08-18T05:32:41.171Z,8.13
2022-08-18T05:35:08.624Z,8.43
2022-08-18T05:37:44.960Z,8.13
2022-08-18T05:40:16.576Z,8.13
2022-08-18T05:42:45.734Z,8.13
2022-08-18T05:45:18.017Z,8.83
2022-08-18T05:47:47.904Z,8.80
2022-08-18T05:50:21.041Z,8.33
2022-08-18T05:52:58.074Z,7.80
2022-08-18T05:55:50.185Z,8.73
2022-08-18T05:58:33.166Z,8.20
2022-08-18T06:01:08.881Z,8.03
2022-08-18T06:03:46.944Z,7.87
2022-08-18T06:06:21.771Z,9.10
2022-08-18T06:08:57.756Z,7.80
2022-08-18T06:11:26.824Z,8.60
2022-08-18T06:13:59.508Z,8.10
2022-08-18T06:16:44.497Z,8.23
2022-08-18T06:19:43.891Z,7.80
2022-08-18T06:22:24.430Z,7.70
2022-08-18T06:25:05.147Z,7.87
2022-08-18T06:27:51.181Z,7.90
2022-08-18T06:30:25.080Z,8.87
2022-08-18T06:33:15.109Z,7.53
2022-08-18T06:35:52.090Z,7.23
2022-08-18T06:38:39.619Z,7.47
2022-08-18T06:41:41.996Z,7.10
2022-08-18T06:44:09.863Z,7.07
2022-08-18T06:46:46.320Z,7.27
2022-08-18T06:49:26.460Z,7.87
2022-08-18T06:51:56.190Z,7.37
2022-08-18T06:54:30.859Z,6.67
2022-08-18T06:57:00.035Z,7.03
2022-08-18T06:59:31.242Z,7.13
2022-08-18T07:02:03.939Z,7.30
2022-08-18T07:04:38.458Z,6.77
2022-08-18T07:07:22.025Z,7.27
2022-08-18T07:09:53.284Z,6.13
2022-08-18T07:12:32.153Z,7.20
2022-08-18T07:15:05.699Z,6.40
2022-08-18T07:17:43.229Z,7.00
2022-08-18T07:20:23.716Z,6.90
2022-08-18T07:23:08.272Z,6.90
2022-08-18T07:25:43.507Z,6.77
2022-08-18T07:28:30.687Z,7.27
2022-08-18T07:31:18.252Z,7.10
2022-08-18T07:33:55.731Z,7.47
2022-08-18T07:36:29.248Z,6.87
2022-08-18T07:39:08.640Z,7.20
2022-08-18T07:41:45.007Z,7.17
2022-08-18T07:44:25.296Z,7.53
2022-08-18T07:47:01.123Z,7.23
2022-08-18T07:49:36.246Z,6.93
2022-08-18T07:52:35.824Z,7.47
2022-08-18T07:55:10.002Z,7.37
2022-08-18T07:57:55.603Z,7.43
2022-08-18T08:03:35.791Z,7.53
2022-08-18T08:06:11.712Z,7.30
2022-08-18T08:08:47.346Z,7.30
2022-08-18T08:11:28.813Z,7.10
2022-08-18T08:14:11.943Z,8.47
2022-08-18T08:16:49.806Z,8.70
2022-08-18T08:20:02.889Z,8.37
2022-08-18T08:22:38.847Z,7.63
2022-08-18T08:25:44.656Z,7.80
2022-08-18T08:28:23.368Z,6.87
2022-08-18T08:31:33.059Z,6.93
2022-08-18T08:34:05.300Z,7.17
2022-08-18T08:36:39.198Z,7.97
2022-08-18T08:39:15.636Z,7.30
2022-08-18T08:41:51.318Z,7.47
2022-08-18T08:44:26.159Z,7.90
2022-08-18T08:47:00.240Z,7.17
2022-08-18T08:49:38.281Z,7.57
2022-08-18T08:52:18.738Z,6.97
2022-08-18T08:54:52.374Z,8.05
2022-08-18T08:57:27.967Z,6.22
2022-08-18T08:59:59.845Z,6.20
2022-08-18T09:02:48.164Z,7.03
2022-08-18T09:05:21.469Z,7.43
2022-08-18T09:08:26.459Z,7.35
2022-08-18T09:11:50.347Z,5.82
2022-08-18T09:14:58.342Z,6.47
2022-08-18T09:18:03.199Z,7.57
2022-08-18T09:21:05.129Z,8.55
2022-08-18T09:23:43.907Z,7.65
2022-08-18T09:26:40.105Z,7.07
2022-08-18T09:29:24.175Z,6.82
2022-08-18T09:32:44.490Z,6.05
2022-08-18T09:35:44.952Z,6.82
2022-08-18T09:38:53.370Z,7.15
2022-08-18T09:41:43.355Z,6.78
2022-08-18T09:44:21.197Z,7.38
2022-08-18T09:47:00.122Z,6.80
2022-08-18T09:52:58.967Z,7.28
2022-08-18T09:58:58.781Z,6.50
2022-08-18T10:01:41.145Z,6.90
2022-08-18T10:04:32.650Z,6.55
2022-08-18T10:07:43.524Z,6.93
2022-08-18T10:11:02.118Z,6.40
2022-08-18T10:13:21.584Z,6.65
2022-08-18T10:16:10.215Z,6.38
2022-08-18T10:19:14.642Z,6.47
2022-08-18T10:22:08.168Z,6.30
2022-08-18T10:24:43.742Z,6.50
2022-08-18T10:27:49.234Z,6.50
2022-08-18T10:34:16.518Z,6.18
2022-08-18T10:36:53.108Z,6.28
2022-08-18T10:39:24.448Z,6.28
2022-08-18T10:42:04.392Z,5.38
2022-08-18T10:44:42.846Z,5.82
2022-08-18T10:47:24.941Z,6.82
2022-08-18T10:50:05.584Z,6.93
2022-08-18T10:53:17.066Z,6.50
2022-08-18T10:55:57.088Z,6.03
2022-08-18T10:58:55.122Z,7.00
2022-08-18T11:01:54.250Z,6.15
2022-08-18T11:04:34.461Z,6.32
2022-08-18T11:07:12.103Z,5.50
2022-08-18T11:09:50.637Z,6.32
2022-08-18T11:13:00.366Z,7.30
2022-08-18T11:15:50.959Z,5.80
2022-08-18T11:18:42.641Z,6.03
2022-08-18T11:21:34.239Z,6.07
2022-08-18T11:24:15.932Z,5.75
2022-08-18T11:26:52.473Z,5.93
2022-08-18T11:29:32.152Z,5.65
2022-08-18T11:32:11.265Z,5.32
2022-08-18T11:34:52.034Z,5.45
2022-08-18T11:37:28.183Z,5.60
2022-08-18T11:43:40.953Z,4.22
2022-08-18T11:46:16.384Z,4.65
2022-08-18T11:48:52.704Z,3.78
2022-08-18T11:51:26.983Z,4.10
2022-08-18T11:54:00.046Z,3.88
2022-08-18T11:56:35.756Z,4.30
2022-08-18T11:59:09.251Z,3.97
2022-08-18T12:01:51.265Z,3.95
2022-08-18T12:04:31.337Z,4.22
2022-08-18T12:07:06.009Z,4.22
2022-08-18T12:12:32.572Z,4.57
2022-08-18T12:15:13.922Z,4.60
2022-08-18T12:20:36.580Z,4.00
2022-08-18T12:23:04.938Z,4.68
2022-08-18T12:25:34.157Z,4.40
2022-08-18T12:28:02.549Z,4.55
2022-08-18T12:30:30.858Z,4.53
2022-08-18T12:33:05.615Z,4.00
2022-08-18T12:35:41.941Z,4.30
2022-08-18T12:38:13.733Z,4.60
2022-08-18T12:40:44.277Z,5.00
2022-08-18T12:43:13.282Z,4.25
2022-08-18T12:45:42.434Z,3.92
2022-08-18T12:48:11.968Z,4.32
2022-08-18T12:50:54.266Z,4.40
2022-08-18T12:53:29.032Z,4.32
2022-08-18T12:55:59.287Z,4.10
2022-08-18T12:58:29.540Z,4.05
2022-08-18T13:00:58.740Z,4.22
2022-08-18T13:03:27.320Z,3.95
2022-08-18T13:05:57.445Z,4.22
2022-08-18T13:08:33.816Z,4.20
2022-08-18T13:11:21.701Z,3.92
2022-08-18T13:13:55.932Z,3.75
2022-08-18T13:16:38.523Z,3.92
2022-08-18T13:19:08.108Z,4.30
2022-08-18T13:21:42.939Z,4.03
2022-08-18T13:24:12.771Z,4.10
2022-08-18T13:26:46.162Z,3.80
2022-08-18T13:29:17.568Z,3.58
2022-08-18T13:31:55.894Z,3.88
2022-08-18T13:34:29.738Z,3.78
2022-08-18T13:36:59.930Z,5.32
2022-08-18T13:39:33.680Z,4.68
2022-08-18T13:42:26.717Z,4.20
2022-08-18T13:44:53.247Z,4.32
2022-08-18T13:47:22.641Z,4.03
2022-08-18T13:49:58.394Z,4.93
2022-08-18T13:52:41.154Z,4.05
2022-08-18T13:55:16.779Z,4.45
2022-08-18T13:57:53.432Z,4.43
2022-08-18T14:00:29.377Z,3.88
2022-08-18T14:03:03.051Z,4.15
2022-08-18T14:05:51.773Z,4.30
2022-08-18T14:08:22.110Z,4.05
2022-08-18T14:10:57.120Z,3.88
2022-08-18T14:13:25.563Z,3.97
2022-08-18T14:15:59.185Z,4.47
2022-08-18T14:18:30.807Z,4.05
2022-08-18T14:21:22.985Z,4.30
2022-08-18T14:24:14.357Z,3.92
2022-08-18T14:26:50.108Z,3.45
2022-08-18T14:29:46.337Z,3.90
2022-08-18T14:32:09.320Z,3.80
2022-08-18T14:34:50.647Z,4.00
2022-08-18T14:37:19.867Z,3.83
2022-08-18T14:39:53.861Z,3.83
2022-08-18T14:42:41.239Z,4.55
2022-08-18T14:45:31.574Z,4.40
2022-08-18T14:48:06.604Z,4.00
2022-08-18T14:50:49.064Z,4.15
2022-08-18T14:53:20.203Z,3.90
2022-08-18T14:55:52.442Z,4.30
2022-08-18T14:58:21.064Z,4.35
2022-08-18T15:00:56.482Z,4.57
2022-08-18T15:03:31.480Z,4.25
2022-08-18T15:06:04.866Z,4.40
2022-08-18T15:08:35.336Z,3.85
2022-08-18T15:11:11.738Z,4.18
2022-08-18T15:13:43.559Z,4.25
2022-08-18T15:16:14.499Z,3.92
2022-08-18T15:18:43.219Z,4.10
2022-08-18T15:21:35.567Z,3.95
2022-08-18T15:24:25.037Z,4.38
2022-08-18T15:27:03.259Z,4.00
2022-08-18T15:29:35.853Z,4.50
2022-08-18T15:32:10.103Z,4.38
2022-08-18T15:34:47.246Z,4.28
2022-08-18T15:37:24.162Z,3.85
2022-08-18T15:40:05.888Z,4.18
2022-08-18T15:42:35.633Z,4.20
2022-08-18T15:45:11.954Z,4.97
2022-08-18T15:47:42.598Z,4.00
2022-08-18T15:50:25.747Z,3.78
2022-08-18T15:52:58.127Z,3.95
2022-08-18T15:55:35.876Z,3.92
2022-08-18T15:58:11.149Z,3.63
2022-08-18T16:00:43.826Z,4.20
2022-08-18T16:03:16.817Z,3.70
2022-08-18T16:05:52.950Z,3.85
2022-08-18T16:08:23.914Z,3.75
2022-08-18T16:10:54.019Z,3.88
2022-08-18T16:13:26.450Z,4.07
2022-08-18T16:15:54.782Z,4.43
2022-08-18T16:18:23.158Z,4.80
2022-08-18T16:20:52.746Z,4.18
2022-08-18T16:23:25.431Z,4.15
2022-08-18T16:25:53.751Z,3.75
2022-08-18T16:28:34.769Z,4.18
2022-08-18T16:31:04.141Z,3.95
2022-08-18T16:33:32.639Z,3.92
2022-08-18T16:36:05.875Z,3.70
2022-08-18T16:38:34.570Z,3.58
2022-08-18T16:41:11.306Z,4.20
2022-08-18T16:43:47.363Z,4.78
2022-08-18T16:46:21.389Z,5.20
2022-08-18T16:48:51.590Z,5.07
2022-08-18T16:51:24.078Z,4.88
2022-08-18T16:53:54.478Z,4.15
2022-08-18T16:56:26.028Z,4.30
2022-08-18T16:59:13.634Z,4.10
2022-08-18T17:02:00.175Z,4.30
2022-08-18T17:04:33.585Z,4.05
2022-08-18T17:07:04.550Z,4.03
2022-08-18T17:09:34.267Z,4.47
2022-08-18T17:12:03.369Z,4.38
2022-08-18T17:14:34.689Z,4.82
2022-08-18T17:17:03.286Z,4.32
2022-08-18T17:19:35.055Z,5.20
2022-08-18T17:22:05.268Z,5.75
2022-08-18T17:24:33.975Z,4.90
2022-08-18T17:27:12.277Z,4.47
2022-08-18T17:30:05.200Z,4.63
2022-08-18T17:32:44.138Z,4.95
2022-08-18T17:35:17.801Z,4.60
2022-08-18T17:37:54.580Z,4.97
2022-08-18T17:40:32.130Z,4.43
2022-08-18T17:43:01.896Z,5.10
2022-08-18T17:45:34.868Z,5.13
2022-08-18T17:48:09.945Z,5.00
2022-08-18T17:51:02.576Z,4.57
2022-08-18T17:53:34.233Z,4.78
2022-08-18T17:56:09.228Z,4.87
2022-08-18T17:58:42.359Z,5.13
2022-08-18T18:01:13.713Z,5.00
2022-08-18T18:03:44.103Z,4.97
2022-08-18T18:06:20.243Z,5.18
2022-08-18T18:08:55.383Z,5.00
2022-08-18T18:11:35.118Z,4.60
2022-08-18T18:14:26.035Z,4.43
2022-08-18T18:17:11.785Z,4.47
2022-08-18T18:19:43.806Z,4.23
2022-08-18T18:22:20.954Z,5.07
2022-08-18T18:24:53.933Z,4.90
2022-08-18T18:27:35.554Z,5.17
2022-08-18T18:30:08.103Z,5.27
2022-08-18T18:32:59.447Z,4.47
2022-08-18T18:35:30.894Z,4.73
2022-08-18T18:38:05.618Z,5.00
2022-08-18T18:40:39.237Z,4.87
2022-08-18T18:43:24.961Z,4.37
2022-08-18T18:46:29.921Z,4.83
2022-08-18T18:49:24.628Z,5.37
2022-08-18T18:52:05.035Z,5.57
2022-08-18T18:54:59.704Z,5.23
2022-08-18T18:57:39.858Z,4.73
2022-08-18T19:00:20.266Z,5.60
2022-08-18T19:03:05.123Z,5.30
2022-08-18T19:05:40.024Z,5.40
2022-08-18T19:08:28.404Z,5.63
2022-08-18T19:11:07.797Z,5.47
2022-08-18T19:13:43.458Z,5.30
2022-08-18T19:16:23.338Z,5.73
2022-08-18T19:19:36.027Z,5.37
2022-08-18T19:22:03.083Z,5.20
2022-08-18T19:24:42.362Z,5.77
2022-08-18T19:27:23.441Z,5.33
2022-08-18T19:29:56.915Z,5.10
2022-08-18T19:32:39.625Z,5.43
2022-08-18T19:35:13.872Z,5.30
2022-08-18T19:38:04.610Z,7.37
2022-08-18T19:40:45.009Z,6.23
2022-08-18T19:43:26.635Z,6.03
2022-08-18T19:46:10.568Z,6.20
2022-08-18T19:48:44.715Z,5.40
2022-08-18T19:51:28.471Z,5.87
2022-08-18T19:54:28.774Z,6.23
2022-08-18T19:57:22.635Z,6.03
2022-08-18T20:00:16.227Z,6.40
2022-08-18T20:03:18.553Z,7.17
2022-08-18T20:05:59.258Z,7.00
2022-08-18T20:09:25.159Z,7.67
2022-08-18T20:12:14.045Z,7.70
2022-08-18T20:14:43.687Z,7.70
2022-08-18T20:17:22.631Z,8.17
2022-08-18T20:20:18.278Z,8.90
2022-08-18T20:22:48.588Z,8.27
2022-08-18T20:25:42.849Z,8.13
2022-08-18T20:28:34.175Z,8.93
2022-08-18T20:31:17.346Z,9.23
2022-08-18T20:34:03.991Z,9.30
2022-08-18T20:36:37.538Z,8.73
2022-08-18T20:39:42.922Z,9.97
2022-08-18T20:42:53.680Z,9.57
2022-08-18T20:45:42.526Z,8.17
2022-08-18T20:48:40.227Z,8.73
2022-08-18T20:51:12.432Z,9.20
2022-08-18T20:54:13.234Z,8.70
2022-08-18T20:56:48.433Z,8.67
2022-08-18T20:59:23.775Z,9.30
2022-08-18T21:01:59.569Z,8.60
2022-08-18T21:04:46.466Z,8.63
2022-08-18T21:07:35.943Z,8.53
2022-08-18T21:10:13.866Z,8.23
2022-08-18T21:12:52.120Z,8.47
2022-08-18T21:15:27.176Z,8.00
2022-08-18T21:18:00.970Z,7.70
2022-08-18T21:20:31.452Z,7.90
2022-08-18T21:23:07.843Z,7.60
2022-08-18T21:25:37.043Z,7.40
2022-08-18T21:28:07.751Z,7.97
2022-08-18T21:30:38.028Z,8.40
2022-08-18T21:33:21.126Z,7.43
2022-08-18T21:35:49.585Z,7.33
2022-08-18T21:38:27.923Z,7.63
2022-08-18T21:41:01.108Z,7.23
2022-08-18T21:43:49.039Z,7.23
2022-08-18T21:46:27.771Z,6.37
2022-08-18T21:48:59.690Z,6.40
2022-08-18T21:51:31.491Z,6.73
2022-08-18T21:54:01.120Z,7.20
2022-08-18T21:56:32.556Z,7.03
2022-08-18T21:59:13.480Z,7.43
2022-08-18T22:01:52.454Z,7.80
2022-08-18T22:04:28.119Z,6.63
2022-08-18T22:07:01.237Z,6.50
2022-08-18T22:09:52.497Z,7.17
2022-08-18T22:12:48.304Z,7.73
2022-08-18T22:15:21.447Z,6.97
2022-08-18T22:17:57.136Z,7.40
2022-08-18T22:20:48.157Z,7.03
2022-08-18T22:23:55.199Z,7.73
2022-08-18T22:26:28.106Z,7.20
2022-08-18T22:29:01.958Z,6.70
2022-08-18T22:31:34.043Z,7.30
2022-08-18T22:34:07.676Z,7.70
2022-08-18T22:36:41.154Z,7.20
2022-08-18T22:39:12.934Z,7.80
2022-08-18T22:41:42.699Z,9.10
2022-08-18T22:44:11.093Z,8.23
2022-08-18T22:46:39.461Z,8.93
2022-08-18T22:49:09.396Z,7.90
2022-08-18T22:51:38.044Z,8.33
2022-08-18T22:54:09.802Z,8.40
2022-08-18T22:56:39.352Z,8.97
2022-08-18T22:59:22.510Z,8.53
2022-08-18T23:01:52.545Z,9.27
2022-08-18T23:04:25.450Z,9.43
2022-08-18T23:06:54.808Z,9.27
2022-08-18T23:09:26.772Z,8.43
2022-08-18T23:11:58.072Z,9.47
2022-08-18T23:14:28.282Z,9.47
2022-08-18T23:16:56.560Z,9.07
2022-08-18T23:19:26.471Z,8.87
2022-08-18T23:21:55.216Z,10.00
2022-08-18T23:24:24.882Z,9.20
2022-08-18T23:26:53.521Z,8.93
2022-08-18T23:29:23.366Z,8.97
2022-08-18T23:31:52.762Z,10.23
2022-08-18T23:34:27.255Z,9.17
2022-08-18T23:36:58.854Z,9.87
2022-08-18T23:39:28.844Z,10.03
2022-08-18T23:41:57.494Z,12.77
2022-08-18T23:44:28.011Z,10.50
2022-08-18T23:46:57.934Z,10.97
2022-08-18T23:49:29.125Z,11.20
2022-08-18T23:51:58.534Z,11.00
2022-08-18T23:54:29.524Z,10.83
2022-08-18T23:56:58.254Z,10.40
2022-08-18T23:59:28.496Z,11.13
